Latest Coastal Weather Observations for Bairnsdale

IDV60701

Issued at 4:51 am EST Wednesday 28 September 2016 (issued every 10 minutes, with the page automatically refreshed every 10 minutes)

About coastal observations | Map of coastal stations | Coastal observations for VIC | Marine services | Other Formats
Station Details ID: 085279 Name: BAIRNSDALE AIRPORT Lat: -37.88 Lon: 147.57 Height: 49.4 m
Data from the previous 72 hours. | See also: Recent months at Bairnsdale
Date/Time
EST
Temp
°C
Wind Pressure Rain since
9am
mm
Weather Cloud Vis
km
Sea
Height
m
Swell
Dir  Spd
kts
Gust
kts
hPa Trend Height
m
Period
s
Dir
28/04:30am 4.9 NW 6 8 1012.8 - 0.0 - - 10 - - - -
28/04:00am 4.1 NW 6 7 1012.8 - 0.0 - - 10 - - - -
28/03:30am 5.6 NNW 6 6 1012.7 - 0.0 - - 10 - - - -
28/03:00am 5.9 NW 5 7 1012.7 - 0.0 - - 10 - - - -
28/02:30am 6.5 NW 6 7 1012.7 - 0.0 - - 10 - - - -
28/02:00am 6.4 NNW 5 7 1012.7 - 0.0 - - 10 - - - -
28/01:30am 6.7 NW 5 5 1012.8 - 0.0 - - 10 - - - -
28/01:00am 6.8 NW 4 5 1013.1 - 0.0 - - 10 - - - -
28/12:30am 7.3 NW 4 5 1013.2 - 0.0 - Partly cloudy 10 - - - -
28/12:00am 7.9 NW 5 6 1013.2 - 0.0 - - 10 - - - -
 
Date/Time
EST
Temp
°C
Wind Pressure Rain since
9am
mm
Weather Cloud Vis
km
Sea
Height
m
Swell
Dir  Spd
kts
Gust
kts
hPa Trend Height
m
Period
s
Dir
27/11:30pm 8.7 WNW 6 7 1013.3 - 0.0 - Partly cloudy 10 - - - -
27/11:00pm 9.2 W 5 7 1013.3 - 0.0 - Partly cloudy 10 - - - -
27/10:30pm 9.6 W 5 7 1013.2 - 0.0 - Partly cloudy 10 - - - -
27/10:00pm 10.0 W 6 8 1013.1 - 0.0 - Partly cloudy 10 - - - -
27/09:30pm 10.1 WSW 8 11 1013.2 - 0.0 - Partly cloudy 10 - - - -
27/09:00pm 10.9 W 8 14 1013.3 - 0.0 - Mostly cloudy 10 - - - -
27/08:30pm 11.2 WSW 9 13 1013.0 - 0.0 - Partly cloudy 10 - - - -
27/08:00pm 11.8 SW 11 15 1012.8 - 0.0 - Partly cloudy 10 - - - -
27/07:30pm 12.0 SW 9 13 1012.6 - 0.0 - Partly cloudy 10 - - - -
27/07:00pm 10.8 SW 5 7 1012.2 - 0.0 - Cloudy 10 - - - -
27/06:30pm 10.5 SW 7 8 1011.8 - 0.0 - Partly cloudy 10 - - - -
27/06:00pm 12.4 WSW 8 12 1011.5 - 0.0 - - 10 - - - -
27/05:30pm 14.2 WSW 7 11 1011.3 - 0.0 - - 10 - - - -
27/05:00pm 14.9 WSW 10 13 1011.0 - 0.0 - Partly cloudy 10 - - - -
27/04:30pm 15.2 W 10 16 1010.8 - 0.0 - Partly cloudy 10 - - - -
27/04:00pm 15.2 W 12 17 1010.6 - 0.0 - Partly cloudy 10 - - - -
27/03:30pm 15.1 WSW 15 19 1010.6 - 0.0 - Partly cloudy 10 - - - -
27/03:00pm 15.1 SW 13 17 1010.4 - 0.0 - Partly cloudy 10 - - - -
27/02:30pm 13.7 SW 11 15 1010.5 - 0.0 - Cloudy 10 - - - -
27/02:00pm 13.7 WSW 14 18 1010.6 - 0.0 - Partly cloudy 10 - - - -
27/01:30pm 13.9 WSW 13 18 1010.6 - 0.0 - Cloudy 10 - - - -
27/01:00pm 13.9 WSW 12 17 1010.5 - 0.0 - Partly cloudy 10 - - - -
27/12:30pm 13.2 WSW 15 21 1010.6 - 0.0 - Partly cloudy 10 - - - -
27/12:00pm 13.3 WSW 13 20 1010.6 - 0.0 - Cloudy 10 - - - -
27/11:30am 14.2 WSW 14 19 1010.5 - 0.0 - Partly cloudy 10 - - - -
27/11:00am 13.3 W 14 19 1010.8 - 0.0 - Partly cloudy 10 - - - -
27/10:30am 12.5 WSW 12 16 1010.8 - 0.0 - Partly cloudy 10 - - - -
27/10:00am 11.6 W 11 16 1010.6 - 0.0 - Partly cloudy 10 - - - -
27/09:30am 11.6 W 12 17 1010.5 - 0.0 - Partly cloudy 10 - - - -
27/09:00am 12.3 W 11 16 1010.3 - 9.8 - Cloudy 10 - - - -
27/08:30am 10.7 W 10 13 1010.2 - 9.8 - - 10 - - - -
27/08:00am 9.7 W 11 15 1009.9 - 9.8 - Partly cloudy 10 - - - -
27/07:30am 9.2 W 11 15 1009.7 - 9.8 - Partly cloudy 10 - - - -
27/07:00am 7.5 WNW 6 9 1009.5 - 9.8 - Partly cloudy 10 - - - -
27/06:30am 7.3 W 9 12 1009.4 - 9.8 - - 10 - - - -
27/06:00am 7.1 WSW 7 9 1009.1 - 9.8 Rain Cloudy 10 - - - -
27/05:30am 7.4 WSW 9 12 1008.8 - 9.4 - Partly cloudy 10 - - - -
27/05:00am 7.4 SW 9 11 1008.5 - 8.8 - Partly cloudy 10 - - - -
27/04:30am 7.4 SW 6 8 1008.4 - 8.6 - Partly cloudy 10 - - - -
27/04:00am 7.6 W 3 8 1008.1 - 8.6 - Partly cloudy 10 - - - -
27/03:30am 7.9 SW 9 11 1008.0 - 8.4 - Partly cloudy 10 - - - -
27/03:27am 8.0 SW 9 11 1008.1 - 8.4 - Partly cloudy 10 - - - -
27/03:07am 8.3 WSW 10 15 1008.3 - 7.4 - Partly cloudy 5 - - - -
27/03:00am 8.3 WSW 11 15 1008.7 - 6.4 Rain Cloudy 7 - - - -
27/02:30am 8.8 WSW 10 13 1008.6 - 3.8 - Partly cloudy 7 - - - -
27/02:00am 8.8 WSW 6 9 1008.7 - 1.8 - Partly cloudy 10 - - - -
27/01:30am 9.4 SE 4 4 1008.4 - 0.4 - Cloudy 10 - - - -
27/01:00am 9.3 E 2 3 1008.7 - 0.2 - Partly cloudy 10 - - - -
27/12:30am 9.2 ENE 2 4 1008.9 - 0.2 - Partly cloudy 10 - - - -
27/12:00am 9.2 NE 6 7 1009.3 - 0.2 - Cloudy 10 - - - -
 
Date/Time
EST
Temp
°C
Wind Pressure Rain since
9am
mm
Weather Cloud Vis
km
Sea
Height
m
Swell
Dir  Spd
kts
Gust
kts
hPa Trend Height
m
Period
s
Dir
26/11:30pm 9.1 NE 5 6 1009.6 - 0.2 - Partly cloudy 10 - - - -
26/11:00pm 9.1 NE 5 6 1009.7 - 0.2 - Partly cloudy 10 - - - -
26/10:30pm 9.1 NE 6 7 1010.0 - 0.2 - - 10 - - - -
26/10:00pm 9.1 NE 5 7 1010.5 - 0.2 - - 10 - - - -
26/09:30pm 9.7 NE 6 8 1010.7 - 0.2 - Cloudy 10 - - - -
26/09:00pm 9.4 ENE 6 7 1010.9 - 0.2 - Partly cloudy 10 - - - -
26/08:30pm 9.1 E 6 7 1011.0 - 0.2 - - 10 - - - -
26/08:00pm 9.4 E 5 6 1010.8 - 0.2 - Partly cloudy 10 - - - -
26/07:30pm 10.3 E 4 5 1010.9 - 0.2 - Partly cloudy 10 - - - -
26/07:00pm 10.4 E 6 7 1010.7 - 0.2 - Partly cloudy 10 - - - -
26/06:30pm 10.7 E 6 7 1010.5 - 0.2 - Partly cloudy 10 - - - -
26/06:00pm 11.0 E 6 7 1010.4 - 0.2 - Mostly clear 10 - - - -
26/05:30pm 12.3 E 7 10 1010.3 - 0.2 - Partly cloudy 10 - - - -
26/05:00pm 13.1 SE 5 6 1010.2 - 0.2 - Partly cloudy 10 - - - -
26/04:30pm 13.3 ESE 5 7 1010.1 - 0.2 - - 10 - - - -
26/04:00pm 14.2 ENE 6 8 1010.0 - 0.2 - Partly cloudy 10 - - - -
26/03:30pm 13.6 ESE 3 7 1010.3 - 0.0 - Partly cloudy 10 - - - -
26/03:00pm 14.3 ENE 6 10 1010.0 - 0.0 - Partly cloudy 10 - - - -
26/02:30pm 14.7 SSE 5 8 1010.1 - 0.0 - Partly cloudy 10 - - - -
26/02:00pm 15.0 S 5 7 1010.5 - 0.0 - Partly cloudy 10 - - - -
26/01:30pm 15.0 S 3 5 1010.7 - 0.0 - Partly cloudy 10 - - - -
26/01:00pm 15.2 SSW 7 11 1010.9 - 0.0 - Partly cloudy 10 - - - -
26/12:30pm 14.8 SSW 8 14 1011.2 - 0.0 - Partly cloudy 10 - - - -
26/12:00pm 15.4 SW 6 10 1011.5 - 0.0 - Partly cloudy 10 - - - -
26/11:30am 15.5 WNW 5 9 1011.7 - 0.0 - Partly cloudy 10 - - - -
26/11:00am 15.4 WNW 5 9 1012.1 - 0.0 - - 10 - - - -
26/10:30am 15.0 WNW 5 10 1012.4 - 0.0 - - 10 - - - -
26/10:00am 15.0 NW 6 10 1012.6 - 0.0 - - 10 - - - -
26/09:30am 13.2 NNW 6 8 1012.9 - 0.0 - - 10 - - - -
26/09:00am 12.6 NNW 5 8 1013.1 - 0.0 - - 10 - - - -
26/08:30am 11.0 NNW 6 8 1013.3 - 0.0 - - 10 - - - -
26/08:00am 8.6 NNW 5 7 1013.6 - 0.0 - - 10 - - - -
26/07:30am 8.0 NW 7 9 1013.8 - 0.0 - - 10 - - - -
26/07:00am 5.8 NW 7 9 1013.8 - 0.0 - - 10 - - - -
26/06:30am 5.0 NW 8 10 1013.8 - 0.0 - - 10 - - - -
26/06:00am 4.5 NW 8 10 1013.6 - 0.0 - Mostly clear 10 - - - -
26/05:30am 4.0 NW 6 7 1013.4 - 0.0 - - 10 - - - -
26/05:00am 4.1 WNW 7 8 1013.3 - 0.0 - - 10 - - - -
26/04:30am 4.1 WNW 7 8 1013.2 - 0.0 - - 10 - - - -
26/04:00am 4.5 NW 8 9 1013.2 - 0.0 - - 10 - - - -
26/03:30am 4.9 NW 8 10 1013.3 - 0.0 - - 10 - - - -
26/03:00am 4.8 NW 7 9 1013.2 - 0.0 - - 10 - - - -
26/02:30am 5.0 NW 7 8 1013.3 - 0.0 - - 10 - - - -
26/02:00am 5.6 NW 8 10 1013.5 - 0.0 - - 10 - - - -
26/01:30am 5.6 NW 8 10 1013.8 - 0.0 - - 10 - - - -
26/01:00am 5.5 NW 7 8 1014.0 - 0.0 - - 10 - - - -
26/12:30am 5.5 NNW 5 6 1014.2 - 0.0 - - 10 - - - -
26/12:00am 7.0 W 6 7 1014.2 - 0.0 - - 10 - - - -
 
Date/Time
EST
Temp
°C
Wind Pressure Rain since
9am
mm
Weather Cloud Vis
km
Sea
Height
m
Swell
Dir  Spd
kts
Gust
kts
hPa Trend Height
m
Period
s
Dir
25/11:30pm 7.5 W 7 9 1014.2 - 0.0 - - 10 - - - -
25/11:00pm 8.0 W 9 11 1014.1 - 0.0 - - 10 - - - -
25/10:30pm 7.7 WSW 10 12 1014.1 - 0.0 - - 10 - - - -
25/10:00pm 7.0 WSW 8 10 1013.9 - 0.0 - - 10 - - - -
25/09:30pm 7.2 W 7 9 1013.7 - 0.0 - - 10 - - - -
25/09:00pm 7.6 WNW 7 9 1013.5 - 0.0 - - 10 - - - -
25/08:30pm 6.9 W 6 8 1013.1 - 0.0 - - 10 - - - -
25/08:00pm 7.4 NW 7 9 1012.8 - 0.0 - - 10 - - - -
25/07:30pm 8.2 WNW 7 9 1012.4 - 0.0 - - 10 - - - -
25/07:00pm 9.4 W 7 9 1012.0 - 0.0 - Partly cloudy 10 - - - -
25/06:30pm 10.8 W 8 10 1011.6 - 0.0 - Cloudy 10 - - - -
25/06:00pm 11.6 W 10 16 1011.1 - 0.0 - Partly cloudy 10 - - - -
25/05:30pm 12.8 WSW 11 16 1010.8 - 0.0 - Cloudy 10 - - - -
25/05:00pm 12.5 WSW 15 20 1010.6 - 0.0 - Cloudy 10 - - - -
25/04:30pm 12.9 WSW 12 18 1010.3 - 0.0 - Cloudy 10 - - - -
25/04:00pm 13.2 WSW 13 19 1010.0 - 0.0 - Cloudy 10 - - - -
25/03:45pm 13.2 WSW 17 27 1009.9 - 0.0 - Cloudy 10 - - - -
25/03:30pm 13.2 WSW 17 25 1009.8 - 0.0 - Cloudy 10 - - - -
25/03:00pm 13.7 WSW 13 17 1009.7 - 0.0 - Mostly cloudy 10 - - - -
25/02:30pm 13.7 WSW 14 22 1009.6 - 0.0 - Cloudy 10 - - - -
25/02:00pm 13.4 SW 13 17 1009.7 - 0.0 - Partly cloudy 10 - - - -
25/01:30pm 13.7 WSW 14 17 1009.5 - 0.0 - Cloudy 10 - - - -
25/01:00pm 13.7 WSW 15 21 1009.5 - 0.0 - Cloudy 10 - - - -
25/12:30pm 13.8 WSW 15 20 1009.6 - 0.0 - Partly cloudy 10 - - - -
25/12:14pm 13.8 WSW 15 25 1009.6 - 0.0 - Partly cloudy 10 - - - -
25/12:00pm 13.8 WSW 14 21 1009.5 - 0.0 - Mostly cloudy 10 - - - -
25/11:30am 13.1 WSW 16 24 1009.5 - 0.0 - Partly cloudy 10 - - - -
25/11:00am 13.0 WSW 13 18 1009.3 - 0.0 - Partly cloudy 10 - - - -
25/10:30am 13.3 WSW 12 17 1009.2 - 0.0 - Partly cloudy 10 - - - -
25/10:00am 12.9 WSW 12 16 1009.1 - 0.0 - Partly cloudy 10 - - - -
25/09:30am 12.6 WSW 12 18 1009.0 - 0.0 - Partly cloudy 10 - - - -
25/09:00am 12.4 WSW 13 19 1008.8 - 1.2 - Cloudy 10 - - - -
25/08:30am 12.1 WSW 11 15 1008.5 - 1.2 - Cloudy 10 - - - -
25/08:00am 11.6 WSW 13 18 1008.0 - 1.2 - Cloudy 10 - - - -
25/07:30am 11.5 WSW 14 20 1007.5 - 1.2 - Partly cloudy 10 - - - -
25/07:00am 11.9 WSW 15 19 1006.9 - 1.2 - Partly cloudy 10 - - - -
25/06:59am 11.9 WSW 15 19 1006.9 - 1.2 - Partly cloudy 10 - - - -
25/06:30am 11.6 W 7 8 1006.5 - 1.2 - Cloudy 10 - - - -
25/06:00am 11.7 W 8 10 1006.0 - 1.2 - Cloudy 10 - - - -
25/05:30am 11.2 WNW 6 8 1005.7 - 1.2 - Cloudy 10 - - - -
25/05:00am 11.1 WNW 6 7 1005.7 - 1.2 - Cloudy 10 - - - -

Other Formats:

Comma delimited format used in spreadsheet applications
http://www.bom.gov.au/fwo/IDV60701/IDV60701.94912.axf

JavaScript Object Notation format (JSON) in row-major order
http://www.bom.gov.au/fwo/IDV60701/IDV60701.94912.json